createdAt,value
2019-01-23T00:03:37.498Z,99819.17
2019-01-23T00:08:40.213Z,99803.34
2019-01-23T00:13:42.908Z,99774.27
2019-01-23T00:18:45.601Z,99772.56
2019-01-23T00:24:07.843Z,99760.16
2019-01-23T00:29:10.544Z,99343.17
2019-01-23T00:34:13.297Z,99745.20
2019-01-23T00:39:16.042Z,99742.20
2019-01-23T00:44:38.235Z,99745.22
2019-01-23T00:50:00.467Z,99769.15
2019-01-23T00:55:04.528Z,99733.25
2019-01-23T01:00:14.186Z,99734.55
2019-01-23T01:05:36.402Z,99740.52
2019-01-23T01:10:58.586Z,99752.47
2019-01-23T01:16:20.754Z,99549.12
2019-01-23T01:21:42.930Z,99763.58
2019-01-23T01:27:05.126Z,99741.36
2019-01-23T01:32:27.284Z,99727.27
2019-01-23T01:37:29.954Z,99691.34
2019-01-23T01:42:32.636Z,99728.95
2019-01-23T01:47:35.330Z,99733.64
2019-01-23T01:52:39.592Z,99737.45
2019-01-23T01:57:42.315Z,99731.92
2019-01-23T02:02:45.002Z,99725.95
2019-01-23T02:08:00.246Z,99717.45
2019-01-23T02:13:02.988Z,99527.38
2019-01-23T02:18:25.174Z,99720.02
2019-01-23T02:23:27.874Z,99425.36
2019-01-23T02:28:50.076Z,99711.03
2019-01-23T02:34:12.269Z,99710.63
2019-01-23T02:39:34.496Z,99448.02
2019-01-23T02:44:56.678Z,99727.70
2019-01-23T02:50:18.870Z,99705.91
2019-01-23T02:55:22.788Z,99689.66
2019-01-23T03:00:25.484Z,99686.25
2019-01-23T03:05:48.324Z,99689.67
2019-01-23T03:11:10.606Z,99697.77
2019-01-23T03:16:32.797Z,99711.87
2019-01-23T03:21:54.970Z,99697.34
2019-01-23T03:27:17.162Z,99474.86
2019-01-23T03:32:39.344Z,99661.48
2019-01-23T03:38:01.546Z,99665.30
2019-01-23T03:43:23.723Z,99244.63
2019-01-23T03:48:26.397Z,99344.36
2019-01-23T03:53:48.591Z,99654.64
2019-01-23T03:59:10.826Z,99661.49
2019-01-23T04:04:33.028Z,99656.79
2019-01-23T04:09:35.717Z,99653.36
2019-01-23T04:14:57.889Z,99660.19
2019-01-23T04:20:21.481Z,99684.97
2019-01-23T04:25:24.153Z,99660.20
2019-01-23T04:30:46.331Z,99656.78
2019-01-23T04:36:08.525Z,99346.05
2019-01-23T04:41:30.708Z,99669.58
2019-01-23T04:46:53.022Z,99660.53
2019-01-23T04:52:34.802Z,99674.66
2019-01-23T04:57:56.978Z,99658.03
2019-01-23T05:03:19.173Z,99641.80
2019-01-23T05:08:34.865Z,99243.64
2019-01-23T05:13:37.542Z,99530.69
2019-01-23T05:18:59.717Z,99644.77
2019-01-23T05:24:21.911Z,99681.02
2019-01-23T05:29:44.092Z,99319.82
2019-01-23T05:34:46.794Z,99662.60
2019-01-23T05:40:09.026Z,99651.44
2019-01-23T05:45:12.307Z,99650.58
2019-01-23T05:50:15.924Z,99653.54
2019-01-23T05:55:18.611Z,99660.28
2019-01-23T06:05:38.077Z,99667.25
2019-01-23T06:11:00.250Z,99699.23
2019-01-23T06:16:22.463Z,99671.92
2019-01-23T06:21:44.662Z,99663.77
2019-01-23T06:26:47.363Z,99659.53
2019-01-23T06:32:09.588Z,99664.25
2019-01-23T06:37:40.993Z,99670.27
2019-01-23T06:43:03.301Z,99667.25
2019-01-23T06:48:06.105Z,99675.75
2019-01-23T06:53:28.334Z,99681.67
2019-01-23T06:58:50.535Z,99682.47
2019-01-23T07:04:12.891Z,99700.79
2019-01-23T07:09:28.142Z,99692.30
2019-01-23T07:14:50.335Z,99698.25
2019-01-23T07:20:33.790Z,99694.41
2019-01-23T07:25:55.977Z,99698.62
2019-01-23T07:31:18.164Z,99693.45
2019-01-23T07:36:40.355Z,99725.72
2019-01-23T07:41:43.049Z,99695.44
2019-01-23T07:47:05.239Z,99705.75
2019-01-23T07:52:07.941Z,99705.83
2019-01-23T07:57:30.133Z,99707.52
2019-01-23T08:02:52.316Z,99575.77
2019-01-23T08:08:07.421Z,99710.13
2019-01-23T08:13:10.163Z,99243.11
2019-01-23T08:18:12.904Z,99722.92
2019-01-23T08:23:15.599Z,99711.02
2019-01-23T08:28:18.282Z,99724.21
2019-01-23T08:33:40.810Z,99727.23
2019-01-23T08:39:24.383Z,99720.45
2019-01-23T08:44:46.570Z,99720.10
2019-01-23T08:50:32.426Z,99716.74
2019-01-23T08:55:54.635Z,99444.46
2019-01-23T09:00:57.324Z,99723.67
2019-01-23T09:06:00.020Z,99724.98
2019-01-23T09:11:22.259Z,99723.30
2019-01-23T09:16:44.671Z,99448.98
2019-01-23T09:22:06.884Z,99734.45
2019-01-23T09:27:29.113Z,99419.22
2019-01-23T09:33:30.274Z,99742.58
2019-01-23T09:39:31.480Z,99733.61
2019-01-23T09:45:32.657Z,99749.44
2019-01-23T09:51:36.615Z,99739.67
2019-01-23T09:56:58.803Z,99745.23
2019-01-23T10:02:20.992Z,99752.05
2019-01-23T10:07:36.533Z,99751.21
2019-01-23T10:12:58.709Z,99342.67
2019-01-23T10:18:20.902Z,99761.46
2019-01-23T10:23:43.089Z,99773.00
2019-01-23T10:29:05.293Z,99781.51
2019-01-23T10:34:27.481Z,99778.86
2019-01-23T10:39:49.667Z,99759.19
2019-01-23T10:45:12.127Z,99769.45
2019-01-23T10:50:34.304Z,99786.06
2019-01-23T10:55:36.996Z,99768.14
2019-01-23T11:00:59.187Z,99760.39
2019-01-23T11:06:14.218Z,99791.67
2019-01-23T11:11:36.400Z,99508.94
2019-01-23T11:16:58.643Z,99757.59
2019-01-23T11:22:01.328Z,99764.05
2019-01-23T11:27:23.698Z,99763.05
2019-01-23T11:32:45.904Z,99763.84
2019-01-23T11:38:08.081Z,99758.67
2019-01-23T11:43:30.341Z,99623.47
2019-01-23T11:48:52.509Z,99758.45
2019-01-23T11:53:55.600Z,99629.30
2019-01-23T11:59:18.026Z,99750.75
2019-01-23T12:04:40.229Z,99748.21
2019-01-23T12:09:55.456Z,99753.73
2019-01-23T12:15:20.506Z,99752.08
2019-01-23T12:20:42.764Z,99741.52
2019-01-23T12:26:04.938Z,99775.61
2019-01-23T12:31:07.603Z,99750.95
2019-01-23T12:41:17.753Z,99745.66
2019-01-23T12:46:39.941Z,99750.48
2019-01-23T12:52:02.607Z,99759.08
2019-01-23T12:57:25.243Z,99780.91
2019-01-23T13:02:47.422Z,99790.27
2019-01-23T13:08:03.055Z,99764.28
2019-01-23T13:13:25.242Z,99788.17
2019-01-23T13:18:47.505Z,99757.14
2019-01-23T13:24:09.689Z,99769.67
2019-01-23T13:29:31.878Z,99767.47
2019-01-23T13:34:54.057Z,99385.25
2019-01-23T13:40:37.302Z,99775.88
2019-01-23T13:45:59.478Z,99774.70
2019-01-23T13:51:21.668Z,99780.60
2019-01-23T13:56:43.846Z,99499.88
2019-01-23T14:02:06.151Z,99781.15
2019-01-23T14:07:22.026Z,99788.07
2019-01-23T14:12:24.693Z,99402.00
2019-01-23T14:17:27.365Z,99791.97
2019-01-23T14:22:49.551Z,99803.50
2019-01-23T14:28:11.751Z,99661.33
2019-01-23T14:33:33.936Z,99813.86
2019-01-23T14:38:56.107Z,99690.07
2019-01-23T14:43:58.771Z,99392.23
2019-01-23T14:49:01.484Z,99828.13
2019-01-23T14:54:23.652Z,99829.39
2019-01-23T14:59:45.835Z,99839.67
2019-01-23T15:05:08.250Z,99835.84
2019-01-23T15:10:18.034Z,99838.84
2019-01-23T15:15:20.722Z,99857.23
2019-01-23T15:20:43.448Z,99865.36
2019-01-23T15:26:05.632Z,99858.52
2019-01-23T15:31:27.818Z,99869.64
2019-01-23T15:36:49.989Z,99547.80
2019-01-23T15:42:12.175Z,99882.48
2019-01-23T15:47:34.369Z,99919.23
2019-01-23T15:52:56.533Z,99900.84
2019-01-23T15:58:18.725Z,99918.81
2019-01-23T16:03:40.898Z,99794.27
2019-01-23T16:08:56.787Z,99752.78
2019-01-23T16:14:19.045Z,99937.20
2019-01-23T16:19:23.039Z,99941.94
2019-01-23T16:24:26.297Z,99946.22
2019-01-23T16:29:28.967Z,99951.79
2019-01-23T16:34:31.631Z,99947.09
2019-01-23T16:39:34.422Z,99950.52
2019-01-23T16:44:56.619Z,99959.93
2019-01-23T16:50:19.791Z,99965.08
2019-01-23T16:55:41.976Z,99699.90
2019-01-23T17:00:44.751Z,99843.56
2019-01-23T17:11:57.294Z,99986.47
2019-01-23T17:16:59.976Z,99995.88
2019-01-23T17:22:02.635Z,99987.73
2019-01-23T17:27:24.826Z,100001.47
2019-01-23T17:32:47.060Z,100008.72
2019-01-23T17:38:09.248Z,100037.44
2019-01-23T17:49:02.113Z,99766.53
2019-01-23T17:54:24.298Z,100014.73
2019-01-23T17:59:46.490Z,100021.15
2019-01-23T18:05:08.837Z,100009.11
2019-01-23T18:10:24.648Z,100051.55
2019-01-23T18:15:46.988Z,100034.84
2019-01-23T18:21:09.165Z,99767.74
2019-01-23T18:26:11.925Z,99855.02
2019-01-23T18:31:38.581Z,100054.54
2019-01-23T18:37:39.783Z,100058.80
2019-01-23T18:43:41.216Z,99922.17
2019-01-23T18:49:42.458Z,100077.25
2019-01-23T18:55:07.876Z,100083.67
2019-01-23T19:00:30.165Z,100088.81
2019-01-23T19:05:53.680Z,100091.77
2019-01-23T19:11:16.897Z,100115.27
2019-01-23T19:16:39.187Z,100099.45
2019-01-23T19:22:01.379Z,100118.73
2019-01-23T19:27:23.579Z,100137.62
2019-01-23T19:32:45.773Z,100116.23
2019-01-23T19:38:07.950Z,100142.64
2019-01-23T19:43:30.151Z,99794.78
2019-01-23T19:48:52.369Z,99789.33
2019-01-23T19:54:14.580Z,100144.45
2019-01-23T19:59:36.761Z,100125.20
2019-01-23T20:04:58.959Z,99732.51
2019-01-23T20:10:15.275Z,100136.69
2019-01-23T20:15:37.865Z,100179.92
2019-01-23T20:21:01.525Z,100147.48
2019-01-23T20:26:23.705Z,99829.09
2019-01-23T20:31:26.391Z,100160.73
2019-01-23T20:36:48.575Z,100159.45
2019-01-23T20:41:51.270Z,100191.57
2019-01-23T20:47:13.444Z,100176.98
2019-01-23T20:52:35.641Z,100179.17
2019-01-23T20:57:38.320Z,100209.59
2019-01-23T21:03:00.502Z,100187.72
2019-01-23T21:08:16.336Z,99926.08
2019-01-23T21:13:38.495Z,99919.33
2019-01-23T21:18:41.196Z,100194.55
2019-01-23T21:24:03.540Z,100203.92
2019-01-23T21:29:25.720Z,99938.67
2019-01-23T21:34:49.275Z,100213.95
2019-01-23T21:39:52.657Z,100224.21
2019-01-23T21:44:55.389Z,100213.06
2019-01-23T21:49:58.087Z,100216.08
2019-01-23T21:55:00.790Z,100179.09
2019-01-23T22:00:43.554Z,100231.89
2019-01-23T22:06:05.738Z,100230.67
2019-01-23T22:11:27.921Z,100237.12
2019-01-23T22:16:30.611Z,100254.67
2019-01-23T22:21:33.276Z,100232.80
2019-01-23T22:26:35.957Z,100239.19
2019-01-23T22:31:58.144Z,100239.56
2019-01-23T22:37:20.331Z,100247.16
2019-01-23T22:42:42.525Z,100241.27
2019-01-23T22:47:45.336Z,100262.31
2019-01-23T22:53:07.512Z,100263.98
2019-01-23T22:58:29.694Z,100288.80
2019-01-23T23:03:51.892Z,100276.30
2019-01-23T23:09:08.440Z,100295.43
2019-01-23T23:14:11.141Z,99970.43
2019-01-23T23:19:13.794Z,100302.97
2019-01-23T23:24:35.977Z,100310.22
2019-01-23T23:29:58.175Z,100335.38
2019-01-23T23:35:20.368Z,100338.23
2019-01-23T23:40:42.691Z,100334.33
2019-01-23T23:46:04.865Z,100360.02
2019-01-23T23:51:27.047Z,100336.38
2019-01-23T23:56:49.221Z,100347.02
